sensor_id;sensor_type;location;lat;lon;timestamp;temperature;humidity
15103;DHT22;7652;53.584;9.998;2023-04-15T00:01:47;9.20;99.90
15103;DHT22;7652;53.584;9.998;2023-04-15T00:04:50;9.10;99.90
15103;DHT22;7652;53.584;9.998;2023-04-15T00:07:55;9.10;99.90
15103;DHT22;7652;53.584;9.998;2023-04-15T00:10:58;9.10;99.90
15103;DHT22;7652;53.584;9.998;2023-04-15T00:14:04;9.10;99.90
15103;DHT22;7652;53.584;9.998;2023-04-15T00:17:08;9.10;99.90
15103;DHT22;7652;53.584;9.998;2023-04-15T00:20:11;9.00;99.90
15103;DHT22;7652;53.584;9.998;2023-04-15T00:23:15;9.10;99.90
15103;DHT22;7652;53.584;9.998;2023-04-15T00:26:18;9.10;99.90
15103;DHT22;7652;53.584;9.998;2023-04-15T00:29:22;9.00;99.90
15103;DHT22;7652;53.584;9.998;2023-04-15T00:32:25;9.00;99.90
15103;DHT22;7652;53.584;9.998;2023-04-15T00:35:28;9.00;99.90
15103;DHT22;7652;53.584;9.998;2023-04-15T00:38:36;9.00;99.90
15103;DHT22;7652;53.584;9.998;2023-04-15T00:41:39;9.00;99.90
15103;DHT22;7652;53.584;9.998;2023-04-15T00:44:42;9.00;99.90
15103;DHT22;7652;53.584;9.998;2023-04-15T00:47:45;9.00;99.90
15103;DHT22;7652;53.584;9.998;2023-04-15T00:50:48;8.90;99.90
15103;DHT22;7652;53.584;9.998;2023-04-15T00:53:53;9.00;99.90
15103;DHT22;7652;53.584;9.998;2023-04-15T00:56:55;9.00;99.90
15103;DHT22;7652;53.584;9.998;2023-04-15T00:59:59;8.90;99.90
15103;DHT22;7652;53.584;9.998;2023-04-15T01:03:03;9.00;99.90
15103;DHT22;7652;53.584;9.998;2023-04-15T01:06:07;9.00;99.90
15103;DHT22;7652;53.584;9.998;2023-04-15T01:09:11;8.90;99.90
15103;DHT22;7652;53.584;9.998;2023-04-15T01:12:14;9.00;99.90
15103;DHT22;7652;53.584;9.998;2023-04-15T01:15:19;8.90;99.90
15103;DHT22;7652;53.584;9.998;2023-04-15T01:18:22;8.80;99.90
15103;DHT22;7652;53.584;9.998;2023-04-15T01:21:26;8.90;99.90
15103;DHT22;7652;53.584;9.998;2023-04-15T01:24:31;9.00;99.90
15103;DHT22;7652;53.584;9.998;2023-04-15T01:27:38;8.90;99.90
15103;DHT22;7652;53.584;9.998;2023-04-15T01:30:41;8.90;99.90
15103;DHT22;7652;53.584;9.998;2023-04-15T01:33:45;8.90;99.90
15103;DHT22;7652;53.584;9.998;2023-04-15T01:36:48;8.80;99.90
15103;DHT22;7652;53.584;9.998;2023-04-15T01:39:51;8.90;99.90
15103;DHT22;7652;53.584;9.998;2023-04-15T01:42:56;8.80;99.90
15103;DHT22;7652;53.584;9.998;2023-04-15T01:45:59;8.80;99.90
15103;DHT22;7652;53.584;9.998;2023-04-15T01:49:02;8.80;99.90
15103;DHT22;7652;53.584;9.998;2023-04-15T01:52:05;8.80;99.90
15103;DHT22;7652;53.584;9.998;2023-04-15T01:55:09;8.80;99.90
15103;DHT22;7652;53.584;9.998;2023-04-15T01:58:13;8.80;99.90
15103;DHT22;7652;53.584;9.998;2023-04-15T02:01:17;8.70;99.90
15103;DHT22;7652;53.584;9.998;2023-04-15T02:04:21;8.70;99.90
15103;DHT22;7652;53.584;9.998;2023-04-15T02:07:25;8.70;99.90
15103;DHT22;7652;53.584;9.998;2023-04-15T02:10:29;8.80;99.90
15103;DHT22;7652;53.584;9.998;2023-04-15T02:13:33;8.80;99.90
15103;DHT22;7652;53.584;9.998;2023-04-15T02:16:37;8.90;99.90
15103;DHT22;7652;53.584;9.998;2023-04-15T02:19:40;8.90;99.90
15103;DHT22;7652;53.584;9.998;2023-04-15T02:22:43;8.90;99.90
15103;DHT22;7652;53.584;9.998;2023-04-15T02:25:46;8.90;99.90
15103;DHT22;7652;53.584;9.998;2023-04-15T02:28:56;8.90;99.90
15103;DHT22;7652;53.584;9.998;2023-04-15T02:31:59;9.00;99.90
15103;DHT22;7652;53.584;9.998;2023-04-15T02:35:03;8.90;99.90
15103;DHT22;7652;53.584;9.998;2023-04-15T02:38:06;9.00;99.90
15103;DHT22;7652;53.584;9.998;2023-04-15T02:41:09;9.10;99.90
15103;DHT22;7652;53.584;9.998;2023-04-15T02:44:13;9.10;99.90
15103;DHT22;7652;53.584;9.998;2023-04-15T02:47:18;8.90;99.90
15103;DHT22;7652;53.584;9.998;2023-04-15T02:50:21;8.80;99.90
15103;DHT22;7652;53.584;9.998;2023-04-15T02:53:25;8.90;99.90
15103;DHT22;7652;53.584;9.998;2023-04-15T02:56:28;8.90;99.90
15103;DHT22;7652;53.584;9.998;2023-04-15T02:59:33;8.90;99.90
15103;DHT22;7652;53.584;9.998;2023-04-15T03:02:37;8.90;99.90
15103;DHT22;7652;53.584;9.998;2023-04-15T03:05:41;9.00;99.90
15103;DHT22;7652;53.584;9.998;2023-04-15T03:08:45;8.90;99.90
15103;DHT22;7652;53.584;9.998;2023-04-15T03:11:48;8.90;99.90
15103;DHT22;7652;53.584;9.998;2023-04-15T03:14:55;8.90;99.90
15103;DHT22;7652;53.584;9.998;2023-04-15T03:17:58;8.90;99.90
15103;DHT22;7652;53.584;9.998;2023-04-15T03:21:01;9.00;99.90
15103;DHT22;7652;53.584;9.998;2023-04-15T03:24:05;9.00;99.90
15103;DHT22;7652;53.584;9.998;2023-04-15T03:27:08;9.10;99.90
15103;DHT22;7652;53.584;9.998;2023-04-15T03:30:12;9.00;99.90
15103;DHT22;7652;53.584;9.998;2023-04-15T03:33:15;9.00;99.90
15103;DHT22;7652;53.584;9.998;2023-04-15T03:36:18;9.00;99.90
15103;DHT22;7652;53.584;9.998;2023-04-15T03:39:21;9.00;99.90
15103;DHT22;7652;53.584;9.998;2023-04-15T03:42:24;9.00;99.90
15103;DHT22;7652;53.584;9.998;2023-04-15T03:45:29;9.00;99.90
15103;DHT22;7652;53.584;9.998;2023-04-15T03:48:32;9.10;99.90
15103;DHT22;7652;53.584;9.998;2023-04-15T03:51:35;9.00;99.90
15103;DHT22;7652;53.584;9.998;2023-04-15T03:54:38;9.00;99.90
15103;DHT22;7652;53.584;9.998;2023-04-15T03:57:41;9.00;99.90
15103;DHT22;7652;53.584;9.998;2023-04-15T04:00:45;8.90;99.90
15103;DHT22;7652;53.584;9.998;2023-04-15T04:03:48;8.90;99.90
15103;DHT22;7652;53.584;9.998;2023-04-15T04:06:51;9.00;99.90
15103;DHT22;7652;53.584;9.998;2023-04-15T04:09:56;9.00;99.90
15103;DHT22;7652;53.584;9.998;2023-04-15T04:12:59;9.00;99.90
15103;DHT22;7652;53.584;9.998;2023-04-15T04:16:03;9.00;99.90
15103;DHT22;7652;53.584;9.998;2023-04-15T04:19:07;9.00;99.90
15103;DHT22;7652;53.584;9.998;2023-04-15T04:22:10;8.90;99.90
15103;DHT22;7652;53.584;9.998;2023-04-15T04:25:13;9.00;99.90
15103;DHT22;7652;53.584;9.998;2023-04-15T04:28:15;9.10;99.90
15103;DHT22;7652;53.584;9.998;2023-04-15T04:31:20;9.10;99.90
15103;DHT22;7652;53.584;9.998;2023-04-15T04:34:23;9.10;99.90
15103;DHT22;7652;53.584;9.998;2023-04-15T04:37:26;9.00;99.90
15103;DHT22;7652;53.584;9.998;2023-04-15T04:40:29;9.00;99.90
15103;DHT22;7652;53.584;9.998;2023-04-15T04:43:32;9.00;99.90
15103;DHT22;7652;53.584;9.998;2023-04-15T04:46:36;9.00;99.90
15103;DHT22;7652;53.584;9.998;2023-04-15T04:49:39;9.10;99.90
15103;DHT22;7652;53.584;9.998;2023-04-15T04:52:42;9.20;99.90
15103;DHT22;7652;53.584;9.998;2023-04-15T04:55:45;9.20;99.90
15103;DHT22;7652;53.584;9.998;2023-04-15T04:58:48;9.20;99.90
15103;DHT22;7652;53.584;9.998;2023-04-15T05:01:53;9.20;99.90
15103;DHT22;7652;53.584;9.998;2023-04-15T05:04:56;9.20;99.90
15103;DHT22;7652;53.584;9.998;2023-04-15T05:07:59;9.10;99.90
15103;DHT22;7652;53.584;9.998;2023-04-15T05:11:02;9.20;99.90
15103;DHT22;7652;53.584;9.998;2023-04-15T05:14:05;9.20;99.90
15103;DHT22;7652;53.584;9.998;2023-04-15T05:17:09;9.20;99.90
15103;DHT22;7652;53.584;9.998;2023-04-15T05:20:13;9.20;99.90
15103;DHT22;7652;53.584;9.998;2023-04-15T05:23:16;9.20;99.90
15103;DHT22;7652;53.584;9.998;2023-04-15T05:26:19;9.30;99.90
15103;DHT22;7652;53.584;9.998;2023-04-15T05:29:22;9.20;99.90
15103;DHT22;7652;53.584;9.998;2023-04-15T05:32:27;9.30;99.90
15103;DHT22;7652;53.584;9.998;2023-04-15T05:35:30;9.30;99.90
15103;DHT22;7652;53.584;9.998;2023-04-15T05:38:33;9.40;99.90
15103;DHT22;7652;53.584;9.998;2023-04-15T05:41:36;9.40;99.90
15103;DHT22;7652;53.584;9.998;2023-04-15T05:44:39;9.40;99.90
15103;DHT22;7652;53.584;9.998;2023-04-15T05:47:43;9.40;99.90
15103;DHT22;7652;53.584;9.998;2023-04-15T05:50:46;9.40;99.90
15103;DHT22;7652;53.584;9.998;2023-04-15T05:53:49;9.40;99.90
15103;DHT22;7652;53.584;9.998;2023-04-15T05:56:52;9.40;99.90
15103;DHT22;7652;53.584;9.998;2023-04-15T05:59:55;9.40;99.90
15103;DHT22;7652;53.584;9.998;2023-04-15T06:02:59;9.40;99.90
15103;DHT22;7652;53.584;9.998;2023-04-15T06:06:03;9.40;99.90
15103;DHT22;7652;53.584;9.998;2023-04-15T06:09:06;9.40;99.90
15103;DHT22;7652;53.584;9.998;2023-04-15T06:12:09;9.40;99.90
15103;DHT22;7652;53.584;9.998;2023-04-15T06:15:13;9.50;99.90
15103;DHT22;7652;53.584;9.998;2023-04-15T06:18:19;9.50;99.90
15103;DHT22;7652;53.584;9.998;2023-04-15T06:21:22;9.60;99.90
15103;DHT22;7652;53.584;9.998;2023-04-15T06:24:25;9.60;99.90
15103;DHT22;7652;53.584;9.998;2023-04-15T06:27:28;9.60;99.90
15103;DHT22;7652;53.584;9.998;2023-04-15T06:30:31;9.50;99.90
15103;DHT22;7652;53.584;9.998;2023-04-15T06:33:35;9.50;99.90
15103;DHT22;7652;53.584;9.998;2023-04-15T06:36:38;9.60;99.90
15103;DHT22;7652;53.584;9.998;2023-04-15T06:39:41;9.60;99.90
15103;DHT22;7652;53.584;9.998;2023-04-15T06:42:45;9.50;99.90
15103;DHT22;7652;53.584;9.998;2023-04-15T06:45:48;9.60;99.90
15103;DHT22;7652;53.584;9.998;2023-04-15T06:48:53;9.60;99.90
15103;DHT22;7652;53.584;9.998;2023-04-15T06:51:56;9.60;99.90
15103;DHT22;7652;53.584;9.998;2023-04-15T06:54:59;9.60;99.90
15103;DHT22;7652;53.584;9.998;2023-04-15T06:58:03;9.70;99.90
15103;DHT22;7652;53.584;9.998;2023-04-15T07:01:06;9.70;99.90
15103;DHT22;7652;53.584;9.998;2023-04-15T07:04:10;9.80;99.90
15103;DHT22;7652;53.584;9.998;2023-04-15T07:07:13;9.80;99.90
15103;DHT22;7652;53.584;9.998;2023-04-15T07:10:18;9.80;99.90
15103;DHT22;7652;53.584;9.998;2023-04-15T07:13:21;9.80;99.90
15103;DHT22;7652;53.584;9.998;2023-04-15T07:16:24;9.80;99.90
15103;DHT22;7652;53.584;9.998;2023-04-15T07:19:31;9.80;99.90
15103;DHT22;7652;53.584;9.998;2023-04-15T07:22:34;9.90;99.90
15103;DHT22;7652;53.584;9.998;2023-04-15T07:25:37;9.90;99.90
15103;DHT22;7652;53.584;9.998;2023-04-15T07:28:40;9.90;99.90
15103;DHT22;7652;53.584;9.998;2023-04-15T07:31:43;9.90;99.90
15103;DHT22;7652;53.584;9.998;2023-04-15T07:34:48;10.00;99.90
15103;DHT22;7652;53.584;9.998;2023-04-15T07:37:51;10.00;99.90
15103;DHT22;7652;53.584;9.998;2023-04-15T07:40:54;10.00;99.90
15103;DHT22;7652;53.584;9.998;2023-04-15T07:43:57;10.10;99.90
15103;DHT22;7652;53.584;9.998;2023-04-15T07:47:01;10.10;99.90
15103;DHT22;7652;53.584;9.998;2023-04-15T07:50:06;10.10;99.90
15103;DHT22;7652;53.584;9.998;2023-04-15T07:53:09;10.10;99.90
15103;DHT22;7652;53.584;9.998;2023-04-15T07:56:13;10.10;99.90
15103;DHT22;7652;53.584;9.998;2023-04-15T07:59:18;10.00;99.90
15103;DHT22;7652;53.584;9.998;2023-04-15T08:02:22;10.10;99.90
15103;DHT22;7652;53.584;9.998;2023-04-15T08:05:26;10.10;99.90
15103;DHT22;7652;53.584;9.998;2023-04-15T08:08:29;10.10;99.90
15103;DHT22;7652;53.584;9.998;2023-04-15T08:11:32;10.20;99.90
15103;DHT22;7652;53.584;9.998;2023-04-15T08:14:35;10.30;99.90
15103;DHT22;7652;53.584;9.998;2023-04-15T08:17:38;10.40;99.90
15103;DHT22;7652;53.584;9.998;2023-04-15T08:20:43;10.40;99.90
15103;DHT22;7652;53.584;9.998;2023-04-15T08:23:47;10.40;99.90
15103;DHT22;7652;53.584;9.998;2023-04-15T08:26:51;10.40;99.90
15103;DHT22;7652;53.584;9.998;2023-04-15T08:29:54;10.40;99.90
15103;DHT22;7652;53.584;9.998;2023-04-15T08:32:57;10.50;99.90
15103;DHT22;7652;53.584;9.998;2023-04-15T08:36:01;10.60;99.90
15103;DHT22;7652;53.584;9.998;2023-04-15T08:39:04;10.60;99.90
15103;DHT22;7652;53.584;9.998;2023-04-15T08:42:15;10.60;99.90
15103;DHT22;7652;53.584;9.998;2023-04-15T08:45:19;10.60;99.90
15103;DHT22;7652;53.584;9.998;2023-04-15T08:48:22;10.70;99.90
15103;DHT22;7652;53.584;9.998;2023-04-15T08:51:29;10.70;99.90
15103;DHT22;7652;53.584;9.998;2023-04-15T08:54:34;10.70;99.90
15103;DHT22;7652;53.584;9.998;2023-04-15T08:57:37;10.90;99.90
15103;DHT22;7652;53.584;9.998;2023-04-15T09:00:40;10.90;99.90
15103;DHT22;7652;53.584;9.998;2023-04-15T09:03:44;11.00;99.90
15103;DHT22;7652;53.584;9.998;2023-04-15T09:06:49;11.10;99.90
15103;DHT22;7652;53.584;9.998;2023-04-15T09:09:52;11.20;99.90
15103;DHT22;7652;53.584;9.998;2023-04-15T09:12:56;11.20;99.90
15103;DHT22;7652;53.584;9.998;2023-04-15T09:16:00;11.10;99.90
15103;DHT22;7652;53.584;9.998;2023-04-15T09:19:19;11.10;99.90
15103;DHT22;7652;53.584;9.998;2023-04-15T09:22:31;11.10;99.90
15103;DHT22;7652;53.584;9.998;2023-04-15T09:25:34;11.30;99.90
15103;DHT22;7652;53.584;9.998;2023-04-15T09:28:41;11.50;99.90
15103;DHT22;7652;53.584;9.998;2023-04-15T09:31:44;11.50;99.90
15103;DHT22;7652;53.584;9.998;2023-04-15T09:34:48;11.60;99.90
15103;DHT22;7652;53.584;9.998;2023-04-15T09:37:52;11.60;99.90
15103;DHT22;7652;53.584;9.998;2023-04-15T09:41:15;12.00;99.90
15103;DHT22;7652;53.584;9.998;2023-04-15T09:44:24;12.30;99.90
15103;DHT22;7652;53.584;9.998;2023-04-15T09:47:28;12.50;99.90
15103;DHT22;7652;53.584;9.998;2023-04-15T09:50:39;12.60;99.90
15103;DHT22;7652;53.584;9.998;2023-04-15T09:53:44;12.70;99.90
15103;DHT22;7652;53.584;9.998;2023-04-15T09:56:47;12.80;99.90
15103;DHT22;7652;53.584;9.998;2023-04-15T09:59:50;13.00;99.90
15103;DHT22;7652;53.584;9.998;2023-04-15T10:02:53;13.10;99.90
15103;DHT22;7652;53.584;9.998;2023-04-15T10:05:59;13.00;99.90
15103;DHT22;7652;53.584;9.998;2023-04-15T10:09:05;12.90;99.90
15103;DHT22;7652;53.584;9.998;2023-04-15T10:12:09;12.90;99.90
15103;DHT22;7652;53.584;9.998;2023-04-15T10:15:14;12.90;99.90
15103;DHT22;7652;53.584;9.998;2023-04-15T10:18:19;12.90;99.90
15103;DHT22;7652;53.584;9.998;2023-04-15T10:21:23;13.30;99.90
15103;DHT22;7652;53.584;9.998;2023-04-15T10:24:28;14.00;99.90
15103;DHT22;7652;53.584;9.998;2023-04-15T10:27:32;14.50;99.90
15103;DHT22;7652;53.584;9.998;2023-04-15T10:30:36;15.50;99.90
15103;DHT22;7652;53.584;9.998;2023-04-15T10:33:40;15.80;99.90
15103;DHT22;7652;53.584;9.998;2023-04-15T10:36:43;16.10;99.90
15103;DHT22;7652;53.584;9.998;2023-04-15T10:39:49;16.00;99.90
15103;DHT22;7652;53.584;9.998;2023-04-15T10:42:53;15.60;99.90
15103;DHT22;7652;53.584;9.998;2023-04-15T10:45:56;15.40;99.90
15103;DHT22;7652;53.584;9.998;2023-04-15T10:49:06;15.30;99.90
15103;DHT22;7652;53.584;9.998;2023-04-15T10:52:09;15.60;99.90
15103;DHT22;7652;53.584;9.998;2023-04-15T10:55:15;16.00;99.90
15103;DHT22;7652;53.584;9.998;2023-04-15T10:58:22;17.00;99.90
15103;DHT22;7652;53.584;9.998;2023-04-15T11:01:49;18.30;99.90
15103;DHT22;7652;53.584;9.998;2023-04-15T11:04:54;18.90;99.90
15103;DHT22;7652;53.584;9.998;2023-04-15T11:07:58;18.70;99.90
15103;DHT22;7652;53.584;9.998;2023-04-15T11:11:02;18.30;99.90
15103;DHT22;7652;53.584;9.998;2023-04-15T11:14:13;18.40;99.90
15103;DHT22;7652;53.584;9.998;2023-04-15T11:17:26;18.20;99.90
15103;DHT22;7652;53.584;9.998;2023-04-15T11:20:31;17.80;99.90
15103;DHT22;7652;53.584;9.998;2023-04-15T11:23:36;17.40;99.90
15103;DHT22;7652;53.584;9.998;2023-04-15T11:26:41;17.00;99.90
15103;DHT22;7652;53.584;9.998;2023-04-15T11:29:44;16.50;99.90
15103;DHT22;7652;53.584;9.998;2023-04-15T11:32:47;16.20;99.90
15103;DHT22;7652;53.584;9.998;2023-04-15T11:35:52;16.00;99.90
15103;DHT22;7652;53.584;9.998;2023-04-15T11:38:57;15.90;99.90
15103;DHT22;7652;53.584;9.998;2023-04-15T11:42:02;15.80;99.90
15103;DHT22;7652;53.584;9.998;2023-04-15T11:45:08;15.80;99.90
15103;DHT22;7652;53.584;9.998;2023-04-15T11:48:12;15.70;99.90
15103;DHT22;7652;53.584;9.998;2023-04-15T11:51:15;15.60;99.90
15103;DHT22;7652;53.584;9.998;2023-04-15T11:54:19;15.30;99.90
15103;DHT22;7652;53.584;9.998;2023-04-15T11:57:30;15.40;99.90
15103;DHT22;7652;53.584;9.998;2023-04-15T12:00:33;15.50;99.90
15103;DHT22;7652;53.584;9.998;2023-04-15T12:03:38;15.50;99.90
15103;DHT22;7652;53.584;9.998;2023-04-15T12:06:42;15.40;99.90
15103;DHT22;7652;53.584;9.998;2023-04-15T12:09:53;15.40;99.90
15103;DHT22;7652;53.584;9.998;2023-04-15T12:12:58;15.40;99.90
15103;DHT22;7652;53.584;9.998;2023-04-15T12:16:02;15.30;99.90
15103;DHT22;7652;53.584;9.998;2023-04-15T12:19:08;15.00;99.90
15103;DHT22;7652;53.584;9.998;2023-04-15T12:22:12;15.00;99.90
15103;DHT22;7652;53.584;9.998;2023-04-15T12:25:16;14.90;99.90
15103;DHT22;7652;53.584;9.998;2023-04-15T12:28:20;14.90;99.90
15103;DHT22;7652;53.584;9.998;2023-04-15T12:31:23;15.00;99.90
15103;DHT22;7652;53.584;9.998;2023-04-15T12:34:28;15.00;99.90
15103;DHT22;7652;53.584;9.998;2023-04-15T12:37:31;15.10;99.90
15103;DHT22;7652;53.584;9.998;2023-04-15T12:40:34;15.10;99.90
15103;DHT22;7652;53.584;9.998;2023-04-15T12:43:38;15.10;99.90
15103;DHT22;7652;53.584;9.998;2023-04-15T12:46:41;15.00;99.90
15103;DHT22;7652;53.584;9.998;2023-04-15T12:49:44;15.00;99.90
15103;DHT22;7652;53.584;9.998;2023-04-15T12:52:47;15.10;99.90
15103;DHT22;7652;53.584;9.998;2023-04-15T12:55:51;15.20;99.90
15103;DHT22;7652;53.584;9.998;2023-04-15T12:58:56;15.20;99.90
15103;DHT22;7652;53.584;9.998;2023-04-15T13:01:59;15.40;99.90
15103;DHT22;7652;53.584;9.998;2023-04-15T13:05:04;15.40;99.90
15103;DHT22;7652;53.584;9.998;2023-04-15T13:08:07;15.50;99.90
15103;DHT22;7652;53.584;9.998;2023-04-15T13:11:10;15.60;99.90
15103;DHT22;7652;53.584;9.998;2023-04-15T13:14:15;15.70;99.90
15103;DHT22;7652;53.584;9.998;2023-04-15T13:17:18;15.80;99.90
15103;DHT22;7652;53.584;9.998;2023-04-15T13:20:23;15.80;99.90
15103;DHT22;7652;53.584;9.998;2023-04-15T13:23:26;15.90;99.90
15103;DHT22;7652;53.584;9.998;2023-04-15T13:26:29;15.90;99.90
15103;DHT22;7652;53.584;9.998;2023-04-15T13:29:34;16.00;99.90
15103;DHT22;7652;53.584;9.998;2023-04-15T13:32:37;16.00;99.90
15103;DHT22;7652;53.584;9.998;2023-04-15T13:35:40;16.10;99.90
15103;DHT22;7652;53.584;9.998;2023-04-15T13:38:43;16.10;99.90
15103;DHT22;7652;53.584;9.998;2023-04-15T13:41:46;16.30;99.90
15103;DHT22;7652;53.584;9.998;2023-04-15T13:44:51;16.30;99.90
15103;DHT22;7652;53.584;9.998;2023-04-15T13:47:54;16.30;99.90
15103;DHT22;7652;53.584;9.998;2023-04-15T13:50:58;16.40;99.90
15103;DHT22;7652;53.584;9.998;2023-04-15T13:54:01;16.50;99.90
15103;DHT22;7652;53.584;9.998;2023-04-15T13:57:04;16.80;99.90
15103;DHT22;7652;53.584;9.998;2023-04-15T14:00:10;16.80;99.90
15103;DHT22;7652;53.584;9.998;2023-04-15T14:03:13;16.80;99.90
15103;DHT22;7652;53.584;9.998;2023-04-15T14:06:16;16.70;99.90
15103;DHT22;7652;53.584;9.998;2023-04-15T14:09:19;16.70;99.90
15103;DHT22;7652;53.584;9.998;2023-04-15T14:12:27;16.60;99.90
15103;DHT22;7652;53.584;9.998;2023-04-15T14:15:31;16.50;99.90
15103;DHT22;7652;53.584;9.998;2023-04-15T14:18:34;16.60;99.90
15103;DHT22;7652;53.584;9.998;2023-04-15T14:21:38;16.60;99.90
15103;DHT22;7652;53.584;9.998;2023-04-15T14:24:41;16.40;99.90
15103;DHT22;7652;53.584;9.998;2023-04-15T14:27:44;16.30;99.90
15103;DHT22;7652;53.584;9.998;2023-04-15T14:30:48;16.10;99.90
15103;DHT22;7652;53.584;9.998;2023-04-15T14:33:51;16.10;99.90
15103;DHT22;7652;53.584;9.998;2023-04-15T14:36:54;16.10;99.90
15103;DHT22;7652;53.584;9.998;2023-04-15T14:39:57;16.30;99.90
15103;DHT22;7652;53.584;9.998;2023-04-15T14:43:01;16.30;99.90
15103;DHT22;7652;53.584;9.998;2023-04-15T14:46:05;16.30;99.90
15103;DHT22;7652;53.584;9.998;2023-04-15T14:49:09;16.30;99.90
15103;DHT22;7652;53.584;9.998;2023-04-15T14:52:12;16.30;99.90
15103;DHT22;7652;53.584;9.998;2023-04-15T14:55:15;16.20;99.90
15103;DHT22;7652;53.584;9.998;2023-04-15T14:58:18;16.20;99.90
15103;DHT22;7652;53.584;9.998;2023-04-15T15:01:22;16.10;99.90
15103;DHT22;7652;53.584;9.998;2023-04-15T15:04:25;16.10;99.90
15103;DHT22;7652;53.584;9.998;2023-04-15T15:07:29;16.00;99.90
15103;DHT22;7652;53.584;9.998;2023-04-15T15:10:32;16.00;99.90
15103;DHT22;7652;53.584;9.998;2023-04-15T15:13:50;15.90;99.90
15103;DHT22;7652;53.584;9.998;2023-04-15T15:16:54;16.00;99.90
15103;DHT22;7652;53.584;9.998;2023-04-15T15:19:57;15.90;99.90
15103;DHT22;7652;53.584;9.998;2023-04-15T15:23:00;15.90;99.90
15103;DHT22;7652;53.584;9.998;2023-04-15T15:26:04;15.90;99.90
15103;DHT22;7652;53.584;9.998;2023-04-15T15:29:07;15.80;99.90
15103;DHT22;7652;53.584;9.998;2023-04-15T15:32:11;15.80;99.90
15103;DHT22;7652;53.584;9.998;2023-04-15T15:35:14;15.70;99.90
15103;DHT22;7652;53.584;9.998;2023-04-15T15:38:18;15.60;99.90
15103;DHT22;7652;53.584;9.998;2023-04-15T15:41:21;15.60;99.90
15103;DHT22;7652;53.584;9.998;2023-04-15T15:44:24;15.60;99.90
15103;DHT22;7652;53.584;9.998;2023-04-15T15:47:28;15.60;99.90
15103;DHT22;7652;53.584;9.998;2023-04-15T15:50:32;15.50;99.90
15103;DHT22;7652;53.584;9.998;2023-04-15T15:53:35;15.40;99.90
15103;DHT22;7652;53.584;9.998;2023-04-15T15:56:38;15.50;99.90
15103;DHT22;7652;53.584;9.998;2023-04-15T15:59:42;15.40;99.90
15103;DHT22;7652;53.584;9.998;2023-04-15T16:02:47;15.30;99.90
15103;DHT22;7652;53.584;9.998;2023-04-15T16:06:08;15.30;99.90
15103;DHT22;7652;53.584;9.998;2023-04-15T16:09:11;15.10;99.90
15103;DHT22;7652;53.584;9.998;2023-04-15T16:12:14;15.00;99.90
15103;DHT22;7652;53.584;9.998;2023-04-15T16:15:17;14.90;99.90
15103;DHT22;7652;53.584;9.998;2023-04-15T16:18:21;14.80;99.90
15103;DHT22;7652;53.584;9.998;2023-04-15T16:21:24;14.70;99.90
15103;DHT22;7652;53.584;9.998;2023-04-15T16:24:28;14.70;99.90
15103;DHT22;7652;53.584;9.998;2023-04-15T16:27:33;14.50;99.90
15103;DHT22;7652;53.584;9.998;2023-04-15T16:30:50;14.40;99.90
15103;DHT22;7652;53.584;9.998;2023-04-15T16:33:55;14.40;99.90
15103;DHT22;7652;53.584;9.998;2023-04-15T16:36:58;14.30;99.90
15103;DHT22;7652;53.584;9.998;2023-04-15T16:40:01;14.30;99.90
15103;DHT22;7652;53.584;9.998;2023-04-15T16:43:05;14.20;99.90
15103;DHT22;7652;53.584;9.998;2023-04-15T16:46:11;14.10;99.90
15103;DHT22;7652;53.584;9.998;2023-04-15T16:49:16;14.10;99.90
15103;DHT22;7652;53.584;9.998;2023-04-15T16:52:19;14.10;99.90
15103;DHT22;7652;53.584;9.998;2023-04-15T16:55:22;14.20;99.90
15103;DHT22;7652;53.584;9.998;2023-04-15T16:58:25;14.20;99.90
15103;DHT22;7652;53.584;9.998;2023-04-15T17:01:28;14.00;99.90
15103;DHT22;7652;53.584;9.998;2023-04-15T17:04:33;13.80;99.90
15103;DHT22;7652;53.584;9.998;2023-04-15T17:07:36;13.90;99.90
15103;DHT22;7652;53.584;9.998;2023-04-15T17:10:39;13.80;99.90
15103;DHT22;7652;53.584;9.998;2023-04-15T17:13:42;13.70;99.90
15103;DHT22;7652;53.584;9.998;2023-04-15T17:16:45;13.70;99.90
15103;DHT22;7652;53.584;9.998;2023-04-15T17:19:50;13.60;99.90
15103;DHT22;7652;53.584;9.998;2023-04-15T17:22:53;13.60;99.90
15103;DHT22;7652;53.584;9.998;2023-04-15T17:25:56;13.60;99.90
15103;DHT22;7652;53.584;9.998;2023-04-15T17:29:03;13.40;99.90
15103;DHT22;7652;53.584;9.998;2023-04-15T17:32:06;13.40;99.90
15103;DHT22;7652;53.584;9.998;2023-04-15T17:35:12;13.40;99.90
15103;DHT22;7652;53.584;9.998;2023-04-15T17:38:15;13.30;99.90
15103;DHT22;7652;53.584;9.998;2023-04-15T17:41:18;13.40;99.90
15103;DHT22;7652;53.584;9.998;2023-04-15T17:44:21;13.40;99.90
15103;DHT22;7652;53.584;9.998;2023-04-15T17:47:26;13.30;99.90
15103;DHT22;7652;53.584;9.998;2023-04-15T17:50:31;13.30;99.90
15103;DHT22;7652;53.584;9.998;2023-04-15T17:53:34;13.20;99.90
15103;DHT22;7652;53.584;9.998;2023-04-15T17:56:37;13.20;99.90
15103;DHT22;7652;53.584;9.998;2023-04-15T17:59:40;13.10;99.90
15103;DHT22;7652;53.584;9.998;2023-04-15T18:02:44;13.10;99.90
15103;DHT22;7652;53.584;9.998;2023-04-15T18:05:51;13.10;99.90
15103;DHT22;7652;53.584;9.998;2023-04-15T18:08:54;13.00;99.90
15103;DHT22;7652;53.584;9.998;2023-04-15T18:11:57;12.90;99.90
15103;DHT22;7652;53.584;9.998;2023-04-15T18:15:00;12.90;99.90
15103;DHT22;7652;53.584;9.998;2023-04-15T18:18:03;12.80;99.90
15103;DHT22;7652;53.584;9.998;2023-04-15T18:21:08;12.70;99.90
15103;DHT22;7652;53.584;9.998;2023-04-15T18:24:14;12.70;99.90
15103;DHT22;7652;53.584;9.998;2023-04-15T18:27:17;12.50;99.90
15103;DHT22;7652;53.584;9.998;2023-04-15T18:30:20;12.50;99.90
15103;DHT22;7652;53.584;9.998;2023-04-15T18:33:24;12.50;99.90
15103;DHT22;7652;53.584;9.998;2023-04-15T18:36:28;12.40;99.90
15103;DHT22;7652;53.584;9.998;2023-04-15T18:39:32;12.40;99.90
15103;DHT22;7652;53.584;9.998;2023-04-15T18:42:35;12.30;99.90
15103;DHT22;7652;53.584;9.998;2023-04-15T18:45:38;12.30;99.90
15103;DHT22;7652;53.584;9.998;2023-04-15T18:48:41;12.20;99.90
15103;DHT22;7652;53.584;9.998;2023-04-15T18:51:45;12.10;99.90
15103;DHT22;7652;53.584;9.998;2023-04-15T18:54:48;12.00;99.90
15103;DHT22;7652;53.584;9.998;2023-04-15T18:57:51;11.90;99.90
15103;DHT22;7652;53.584;9.998;2023-04-15T19:00:57;11.80;99.90
15103;DHT22;7652;53.584;9.998;2023-04-15T19:04:00;11.80;99.90
15103;DHT22;7652;53.584;9.998;2023-04-15T19:07:05;11.70;99.90
15103;DHT22;7652;53.584;9.998;2023-04-15T19:10:10;11.60;99.90
15103;DHT22;7652;53.584;9.998;2023-04-15T19:13:13;11.60;99.90
15103;DHT22;7652;53.584;9.998;2023-04-15T19:16:19;11.60;99.90
15103;DHT22;7652;53.584;9.998;2023-04-15T19:19:22;11.50;99.90
15103;DHT22;7652;53.584;9.998;2023-04-15T19:22:28;11.50;99.90
15103;DHT22;7652;53.584;9.998;2023-04-15T19:25:31;11.50;99.90
15103;DHT22;7652;53.584;9.998;2023-04-15T19:28:34;11.40;99.90
15103;DHT22;7652;53.584;9.998;2023-04-15T19:31:37;11.40;99.90
15103;DHT22;7652;53.584;9.998;2023-04-15T19:34:40;11.30;99.90
15103;DHT22;7652;53.584;9.998;2023-04-15T19:37:46;11.40;99.90
15103;DHT22;7652;53.584;9.998;2023-04-15T19:40:49;11.40;99.90
15103;DHT22;7652;53.584;9.998;2023-04-15T19:43:52;11.30;99.90
15103;DHT22;7652;53.584;9.998;2023-04-15T19:46:55;11.30;99.90
15103;DHT22;7652;53.584;9.998;2023-04-15T19:49:58;11.20;99.90